createdAt,value
2023-04-14T00:02:14.022Z,99279.74
2023-04-14T00:04:41.175Z,99275.67
2023-04-14T00:07:16.050Z,99278.05
2023-04-14T00:09:41.423Z,99275.25
2023-04-14T00:12:12.816Z,99271.52
2023-04-14T00:14:36.252Z,99269.02
2023-04-14T00:17:20.494Z,99266.83
2023-04-14T00:19:46.578Z,99265.55
2023-04-14T00:22:22.111Z,99270.14
2023-04-14T00:24:45.837Z,99275.02
2023-04-14T00:27:09.482Z,99271.91
2023-04-14T00:29:38.222Z,99271.91
2023-04-14T00:32:01.845Z,99267.05
2023-04-14T00:34:26.953Z,99263.21
2023-04-14T00:36:54.258Z,99259.37
2023-04-14T00:39:18.111Z,99260.90
2023-04-14T00:41:44.857Z,99257.90
2023-04-14T00:44:16.319Z,99255.27
2023-04-14T00:46:43.344Z,99257.81
2023-04-14T00:49:07.373Z,99252.74
2023-04-14T00:51:37.049Z,99254.38
2023-04-14T00:54:10.865Z,99252.05
2023-04-14T00:56:57.460Z,99253.74
2023-04-14T00:59:32.409Z,99255.10
2023-04-14T01:02:00.584Z,99258.95
2023-04-14T01:04:53.496Z,99256.34
2023-04-14T01:07:19.097Z,99257.58
2023-04-14T01:09:45.492Z,99256.91
2023-04-14T01:12:48.972Z,99263.19
2023-04-14T01:15:22.612Z,99261.35
2023-04-14T01:17:54.487Z,99258.36
2023-04-14T01:20:26.863Z,99260.73
2023-04-14T01:22:58.462Z,99259.73
2023-04-14T01:26:06.404Z,99263.65
2023-04-14T01:28:56.231Z,99262.09
2023-04-14T01:31:44.784Z,99261.41
2023-04-14T01:34:14.028Z,99265.16
2023-04-14T01:37:02.216Z,99262.48
2023-04-14T01:39:42.416Z,99265.78
2023-04-14T01:42:32.832Z,99264.61
2023-04-14T01:45:02.272Z,99264.23
2023-04-14T01:47:29.409Z,99266.44
2023-04-14T01:50:06.847Z,99263.31
2023-04-14T01:52:54.021Z,99259.08
2023-04-14T01:55:19.977Z,99262.14
2023-04-14T01:57:46.065Z,99259.27
2023-04-14T02:00:13.032Z,99257.77
2023-04-14T02:02:42.230Z,99257.13
2023-04-14T02:05:09.643Z,99259.19
2023-04-14T02:07:34.818Z,99264.40
2023-04-14T02:10:03.226Z,99266.19
2023-04-14T02:12:31.618Z,99270.91
2023-04-14T02:15:00.754Z,99269.55
2023-04-14T02:17:26.624Z,99270.45
2023-04-14T02:19:51.163Z,99268.16
2023-04-14T02:22:15.746Z,99266.02
2023-04-14T02:24:51.011Z,99264.98
2023-04-14T02:27:18.209Z,99266.31
2023-04-14T02:29:48.430Z,99267.15
2023-04-14T02:32:21.475Z,99266.66
2023-04-14T02:34:53.594Z,99266.04
2023-04-14T02:37:35.871Z,99265.02
2023-04-14T02:40:24.576Z,99268.44
2023-04-14T02:43:02.893Z,99268.14
2023-04-14T02:45:30.307Z,99267.00
2023-04-14T02:47:58.154Z,99266.52
2023-04-14T02:50:27.003Z,99266.91
2023-04-14T02:53:00.874Z,99268.40
2023-04-14T02:55:34.698Z,99268.64
2023-04-14T02:57:59.494Z,99269.88
2023-04-14T03:00:24.519Z,99270.58
2023-04-14T03:02:51.608Z,99270.06
2023-04-14T03:05:18.687Z,99274.73
2023-04-14T03:07:53.716Z,99277.48
2023-04-14T03:10:27.567Z,99279.90
2023-04-14T03:12:54.110Z,99281.24
2023-04-14T03:15:22.157Z,99280.86
2023-04-14T03:17:53.455Z,99282.06
2023-04-14T03:20:21.185Z,99281.50
2023-04-14T03:23:00.961Z,99281.71
2023-04-14T03:25:28.900Z,99282.86
2023-04-14T03:27:55.346Z,99287.82
2023-04-14T03:30:24.657Z,99283.77
2023-04-14T03:32:52.008Z,99285.98
2023-04-14T03:35:37.423Z,99286.79
2023-04-14T03:38:08.496Z,99289.81
2023-04-14T03:40:37.820Z,99290.09
2023-04-14T03:43:03.387Z,99291.23
2023-04-14T03:45:48.860Z,99292.89
2023-04-14T03:48:30.611Z,99300.37
2023-04-14T03:51:17.119Z,99301.14
2023-04-14T03:53:47.426Z,99300.66
2023-04-14T03:56:15.445Z,99301.83
2023-04-14T03:58:55.859Z,99300.42
2023-04-14T04:01:28.298Z,99301.92
2023-04-14T04:04:05.723Z,99302.75
2023-04-14T04:06:49.578Z,99304.77
2023-04-14T04:09:15.336Z,99303.00
2023-04-14T04:11:43.405Z,99305.67
2023-04-14T04:14:08.269Z,99305.27
2023-04-14T04:16:38.238Z,99303.44
2023-04-14T04:19:04.646Z,99304.23
2023-04-14T04:21:31.858Z,99305.55
2023-04-14T04:24:15.160Z,99308.50
2023-04-14T04:26:39.508Z,99309.36
2023-04-14T04:29:04.017Z,99308.34
2023-04-14T04:31:33.084Z,99312.11
2023-04-14T04:34:08.428Z,99313.29
2023-04-14T04:36:35.930Z,99319.79
2023-04-14T04:39:04.066Z,99320.95
2023-04-14T04:41:31.033Z,99325.73
2023-04-14T04:43:58.478Z,99325.41
2023-04-14T04:46:48.313Z,99327.19
2023-04-14T04:49:19.914Z,99334.73
2023-04-14T04:51:49.597Z,99335.66
2023-04-14T04:54:33.697Z,99337.60
2023-04-14T04:57:00.588Z,99339.17
2023-04-14T04:59:37.399Z,99342.46
2023-04-14T05:02:02.107Z,99336.59
2023-04-14T05:04:28.285Z,99333.48
2023-04-14T05:06:51.880Z,99332.11
2023-04-14T05:09:21.089Z,99331.69
2023-04-14T05:11:50.382Z,99332.73
2023-04-14T05:14:14.031Z,99333.09
2023-04-14T05:16:37.631Z,99337.96
2023-04-14T05:19:01.441Z,99338.21
2023-04-14T05:21:25.243Z,99336.31
2023-04-14T05:23:51.505Z,99335.44
2023-04-14T05:28:57.961Z,99334.98
2023-04-14T05:31:24.758Z,99336.36
2023-04-14T05:33:52.948Z,99338.55
2023-04-14T05:36:26.801Z,99337.31
2023-04-14T05:38:53.649Z,99336.13
2023-04-14T05:41:17.290Z,99337.18
2023-04-14T05:43:52.122Z,99335.92
2023-04-14T05:46:19.067Z,99336.58
2023-04-14T05:48:42.638Z,99334.95
2023-04-14T05:51:08.467Z,99331.14
2023-04-14T05:53:33.940Z,99335.98
2023-04-14T05:55:59.846Z,99337.41
2023-04-14T05:58:43.517Z,99337.38
2023-04-14T06:01:27.511Z,99333.49
2023-04-14T06:04:04.214Z,99335.52
2023-04-14T06:06:28.090Z,99335.49
2023-04-14T06:08:54.771Z,99338.84
2023-04-14T06:11:18.225Z,99337.23
2023-04-14T06:13:52.048Z,99338.76
2023-04-14T06:16:15.774Z,99338.65
2023-04-14T06:18:39.644Z,99336.69
2023-04-14T06:21:07.163Z,99340.47
2023-04-14T06:23:33.215Z,99343.99
2023-04-14T06:25:57.373Z,99347.82
2023-04-14T06:28:23.459Z,99347.27
2023-04-14T06:30:47.464Z,99343.50
2023-04-14T06:33:11.072Z,99340.00
2023-04-14T06:35:35.082Z,99334.45
2023-04-14T06:37:58.484Z,99339.25
2023-04-14T06:40:22.215Z,99342.36
2023-04-14T06:42:48.634Z,99338.48
2023-04-14T06:45:12.450Z,99340.10
2023-04-14T06:47:35.990Z,99333.70
2023-04-14T06:49:59.782Z,99334.09
2023-04-14T06:52:23.566Z,99327.02
2023-04-14T06:54:47.103Z,99324.95
2023-04-14T06:57:10.761Z,99328.05
2023-04-14T06:59:34.485Z,99327.51
2023-04-14T07:01:58.193Z,99326.17
2023-04-14T07:04:22.851Z,99326.50
2023-04-14T07:06:46.581Z,99321.67
2023-04-14T07:09:09.952Z,99322.52
2023-04-14T07:11:33.816Z,99322.07
2023-04-14T07:13:57.518Z,99320.34
2023-04-14T07:16:21.366Z,99322.60
2023-04-14T07:18:44.981Z,99323.69
2023-04-14T07:21:08.444Z,99321.04
2023-04-14T07:23:33.021Z,99325.27
2023-04-14T07:25:57.988Z,99317.27
2023-04-14T07:28:22.581Z,99316.55
2023-04-14T07:30:46.541Z,99310.33
2023-04-14T07:33:10.228Z,99313.06
2023-04-14T07:35:33.907Z,99306.20
2023-04-14T07:37:57.638Z,99304.92
2023-04-14T07:40:21.342Z,99302.48
2023-04-14T07:42:46.211Z,99305.11
2023-04-14T07:45:11.698Z,99305.11
2023-04-14T07:47:35.454Z,99301.99
2023-04-14T07:49:59.200Z,99300.30
2023-04-14T07:52:22.739Z,99302.89
2023-04-14T07:54:46.256Z,99302.00
2023-04-14T07:57:10.230Z,99297.70
2023-04-14T07:59:33.726Z,99301.79
2023-04-14T08:01:57.298Z,99301.19
2023-04-14T08:04:21.497Z,99302.66
2023-04-14T08:06:44.945Z,99297.29
2023-04-14T08:09:08.406Z,99295.17
2023-04-14T08:11:31.985Z,99295.05
2023-04-14T08:13:55.430Z,99293.95
2023-04-14T08:16:19.283Z,99292.09
2023-04-14T08:18:42.973Z,99288.85
2023-04-14T08:21:06.962Z,99293.56
2023-04-14T08:23:30.746Z,99291.06
2023-04-14T08:25:54.181Z,99287.50
2023-04-14T08:28:17.791Z,99288.77
2023-04-14T08:30:41.432Z,99284.98
2023-04-14T08:33:05.228Z,99285.44
2023-04-14T08:35:37.400Z,99286.28
2023-04-14T08:38:04.691Z,99286.86
2023-04-14T08:40:35.700Z,99287.88
2023-04-14T08:42:59.113Z,99290.84
2023-04-14T08:45:23.769Z,99287.77
2023-04-14T08:47:51.161Z,99288.19
2023-04-14T08:50:18.302Z,99286.88
2023-04-14T08:52:43.105Z,99283.96
2023-04-14T08:55:10.797Z,99279.98
2023-04-14T08:57:35.771Z,99281.95
2023-04-14T08:59:59.482Z,99280.66
2023-04-14T09:02:23.647Z,99279.70
2023-04-14T09:04:49.179Z,99285.30
2023-04-14T09:07:13.519Z,99276.10
2023-04-14T09:09:37.293Z,99273.66
2023-04-14T09:12:02.565Z,99279.29
2023-04-14T09:14:27.272Z,99280.10
2023-04-14T09:16:53.253Z,99275.13
2023-04-14T09:19:17.134Z,99271.83
2023-04-14T09:21:52.578Z,99275.98
2023-04-14T09:24:23.023Z,99266.78
2023-04-14T09:26:46.536Z,99274.42
2023-04-14T09:29:09.877Z,99277.45
2023-04-14T09:31:34.154Z,99279.10
2023-04-14T09:33:58.216Z,99284.09
2023-04-14T09:36:22.945Z,99284.73
2023-04-14T09:38:47.020Z,99287.02
2023-04-14T09:41:16.135Z,99289.37
2023-04-14T09:43:40.094Z,99291.75
2023-04-14T09:46:07.842Z,99286.30
2023-04-14T09:48:31.867Z,99285.18
2023-04-14T09:51:00.130Z,99283.73
2023-04-14T09:53:27.109Z,99287.63
2023-04-14T09:55:51.927Z,99284.48
2023-04-14T09:58:21.363Z,99284.48
2023-04-14T10:00:46.146Z,99278.23
2023-04-14T10:03:09.707Z,99273.23
2023-04-14T10:05:34.698Z,99269.34
2023-04-14T10:08:03.247Z,99268.08
2023-04-14T10:10:27.301Z,99266.05
2023-04-14T10:12:54.008Z,99269.27
2023-04-14T10:15:17.881Z,99268.25
2023-04-14T10:17:42.045Z,99268.80
2023-04-14T10:20:08.244Z,99274.29
2023-04-14T10:22:33.089Z,99266.06
2023-04-14T10:24:58.280Z,99264.20
2023-04-14T10:27:22.478Z,99266.80
2023-04-14T10:29:46.616Z,99271.80
2023-04-14T10:32:13.415Z,99262.88
2023-04-14T10:34:41.970Z,99265.56
2023-04-14T10:37:16.366Z,99264.75
2023-04-14T10:39:40.337Z,99266.02
2023-04-14T10:42:03.943Z,99263.00
2023-04-14T10:44:31.111Z,99263.65
2023-04-14T10:46:55.745Z,99264.52
2023-04-14T10:49:22.076Z,99273.21
2023-04-14T10:51:49.190Z,99275.39
2023-04-14T10:54:18.284Z,99273.66
2023-04-14T10:56:41.832Z,99269.14
2023-04-14T10:59:06.389Z,99274.15
2023-04-14T11:01:31.544Z,99269.56
2023-04-14T11:03:55.705Z,99268.40
2023-04-14T11:06:52.654Z,99264.88
2023-04-14T11:09:24.557Z,99262.27
2023-04-14T11:11:48.504Z,99267.46
2023-04-14T11:14:11.965Z,99263.56
2023-04-14T11:16:42.364Z,99261.44
2023-04-14T11:19:14.745Z,99258.13
2023-04-14T11:21:49.677Z,99253.02
2023-04-14T11:24:13.367Z,99251.19
2023-04-14T11:26:36.870Z,99248.02
2023-04-14T11:29:07.952Z,99241.79
2023-04-14T11:31:31.526Z,99244.99
2023-04-14T11:33:55.994Z,99249.73
2023-04-14T11:36:19.351Z,99249.01
2023-04-14T11:38:43.361Z,99246.14
2023-04-14T11:41:07.377Z,99247.69
2023-04-14T11:43:30.906Z,99242.95
2023-04-14T11:45:54.832Z,99245.64
2023-04-14T11:48:20.120Z,99247.14
2023-04-14T11:50:45.428Z,99247.27
2023-04-14T11:53:09.979Z,99243.98
2023-04-14T11:55:34.129Z,99242.59
2023-04-14T11:57:57.741Z,99236.11
2023-04-14T12:00:21.872Z,99233.65
2023-04-14T12:02:46.285Z,99235.08
2023-04-14T12:05:11.539Z,99233.52
2023-04-14T12:07:35.610Z,99230.55
2023-04-14T12:09:59.334Z,99228.27
2023-04-14T12:12:23.214Z,99225.74
2023-04-14T12:14:48.646Z,99225.09
2023-04-14T12:17:14.680Z,99221.39
2023-04-14T12:19:38.383Z,99218.00
2023-04-14T12:22:01.897Z,99217.96
2023-04-14T12:24:32.615Z,99222.02
2023-04-14T12:26:57.124Z,99221.19
2023-04-14T12:29:23.527Z,99214.34
2023-04-14T12:31:46.876Z,99217.63
2023-04-14T12:34:14.252Z,99212.16
2023-04-14T12:36:49.684Z,99208.02
2023-04-14T12:39:13.990Z,99200.84
2023-04-14T12:41:41.231Z,99202.89
2023-04-14T12:44:15.491Z,99202.79
2023-04-14T12:46:46.630Z,99190.41
2023-04-14T12:49:29.875Z,99193.64
2023-04-14T12:51:53.514Z,99191.23
2023-04-14T12:54:17.006Z,99188.29
2023-04-14T12:56:42.454Z,99180.92
2023-04-14T12:59:06.208Z,99185.27
2023-04-14T13:01:29.780Z,99178.69
2023-04-14T13:03:54.832Z,99182.55
2023-04-14T13:06:20.303Z,99178.10
2023-04-14T13:08:44.480Z,99180.18
2023-04-14T13:11:07.823Z,99177.41
2023-04-14T13:13:31.431Z,99175.63
2023-04-14T13:16:13.107Z,99174.33
2023-04-14T13:18:39.138Z,99172.40
2023-04-14T13:21:03.482Z,99178.08
2023-04-14T13:23:26.877Z,99180.48
2023-04-14T13:25:50.777Z,99188.39
2023-04-14T13:28:14.491Z,99187.08
2023-04-14T13:30:41.168Z,99188.71
2023-04-14T13:33:04.845Z,99185.40
2023-04-14T13:35:28.598Z,99179.77
2023-04-14T13:37:52.000Z,99179.63
2023-04-14T13:40:15.750Z,99180.23
2023-04-14T13:42:39.158Z,99177.80
2023-04-14T13:45:03.061Z,99177.54
2023-04-14T13:47:27.894Z,99179.92
2023-04-14T13:49:51.342Z,99179.16
2023-04-14T13:52:15.095Z,99186.05
2023-04-14T13:54:38.899Z,99182.54
2023-04-14T13:57:02.879Z,99181.48
2023-04-14T13:59:26.574Z,99183.99
2023-04-14T14:01:50.281Z,99187.39
2023-04-14T14:04:14.002Z,99179.08
2023-04-14T14:06:37.643Z,99182.13
2023-04-14T14:09:05.137Z,99179.30
2023-04-14T14:11:29.426Z,99178.20
2023-04-14T14:13:52.836Z,99172.64
2023-04-14T14:16:29.454Z,99170.20
2023-04-14T14:19:00.429Z,99168.00
2023-04-14T14:21:24.643Z,99163.10
2023-04-14T14:23:48.523Z,99166.09
2023-04-14T14:26:13.340Z,99168.10
2023-04-14T14:28:36.850Z,99171.73
2023-04-14T14:31:00.308Z,99172.49
2023-04-14T14:33:23.829Z,99167.60
2023-04-14T14:35:47.738Z,99167.84
2023-04-14T14:38:11.898Z,99171.33
2023-04-14T14:40:35.882Z,99164.23
2023-04-14T14:42:59.628Z,99164.63
2023-04-14T14:45:30.348Z,99165.20
2023-04-14T14:47:55.251Z,99164.98
2023-04-14T14:50:18.981Z,99172.61
2023-04-14T14:52:42.377Z,99164.41
2023-04-14T14:55:08.067Z,99163.70
2023-04-14T14:57:31.610Z,99171.77
2023-04-14T15:00:07.177Z,99163.70
2023-04-14T15:02:30.751Z,99170.59
2023-04-14T15:04:54.974Z,99167.85
2023-04-14T15:07:21.670Z,99169.35
2023-04-14T15:09:47.419Z,99162.25
2023-04-14T15:12:11.180Z,99163.23
2023-04-14T15:14:35.281Z,99166.98
2023-04-14T15:16:58.687Z,99169.52
2023-04-14T15:19:22.986Z,99167.09
2023-04-14T15:21:46.726Z,99168.12
2023-04-14T15:24:10.338Z,99168.44
2023-04-14T15:26:33.886Z,99164.55
2023-04-14T15:28:57.560Z,99161.96
2023-04-14T15:31:21.231Z,99158.39
2023-04-14T15:33:45.721Z,99162.78
2023-04-14T15:36:09.201Z,99170.02
2023-04-14T15:38:32.674Z,99171.63
2023-04-14T15:40:56.462Z,99181.96
2023-04-14T15:43:19.912Z,99178.82
2023-04-14T15:45:43.560Z,99180.45
2023-04-14T15:48:07.270Z,99182.35
2023-04-14T15:50:30.827Z,99181.48
2023-04-14T15:52:55.198Z,99186.34
2023-04-14T15:55:19.181Z,99185.78
2023-04-14T15:57:42.744Z,99184.36
2023-04-14T16:00:08.448Z,99187.11
2023-04-14T16:02:38.227Z,99190.66
2023-04-14T16:05:04.375Z,99187.05
2023-04-14T16:07:28.656Z,99186.24
2023-04-14T16:09:53.164Z,99187.64
2023-04-14T16:12:16.551Z,99182.57
2023-04-14T16:14:42.335Z,99186.83
2023-04-14T16:17:06.008Z,99189.38
2023-04-14T16:19:29.494Z,99186.62
2023-04-14T16:21:54.188Z,99188.92
2023-04-14T16:24:17.815Z,99188.48
2023-04-14T16:26:42.300Z,99191.25
2023-04-14T16:29:06.200Z,99191.81
2023-04-14T16:31:30.512Z,99196.37
2023-04-14T16:33:53.979Z,99202.18
2023-04-14T16:36:18.440Z,99202.37
2023-04-14T16:38:41.878Z,99206.67
2023-04-14T16:41:05.601Z,99206.38
2023-04-14T16:43:29.154Z,99205.23
2023-04-14T16:45:52.733Z,99208.33
2023-04-14T16:48:17.277Z,99210.73
2023-04-14T16:50:42.126Z,99213.20
2023-04-14T16:53:06.155Z,99217.30
2023-04-14T16:55:29.933Z,99224.64
2023-04-14T16:57:53.399Z,99222.46
2023-04-14T17:00:18.337Z,99226.25
2023-04-14T17:02:42.109Z,99224.89
2023-04-14T17:05:09.508Z,99231.80
2023-04-14T17:07:33.312Z,99234.69
2023-04-14T17:09:57.064Z,99241.24
2023-04-14T17:12:21.764Z,99244.81
2023-04-14T17:14:45.681Z,99242.27
2023-04-14T17:17:09.442Z,99245.42
2023-04-14T17:19:33.633Z,99248.30
2023-04-14T17:21:57.572Z,99241.91
2023-04-14T17:24:20.908Z,99246.59
2023-04-14T17:26:44.434Z,99248.29
2023-04-14T17:29:08.715Z,99252.45
2023-04-14T17:31:32.699Z,99254.12
2023-04-14T17:33:57.035Z,99253.10
2023-04-14T17:36:20.705Z,99253.91
2023-04-14T17:38:45.395Z,99255.00
2023-04-14T17:41:10.390Z,99259.83
2023-04-14T17:43:37.545Z,99256.56
2023-04-14T17:46:01.075Z,99253.05
2023-04-14T17:48:25.129Z,99269.35
2023-04-14T17:50:49.031Z,99269.21
2023-04-14T17:53:16.518Z,99272.41
2023-04-14T17:55:40.205Z,99270.86
2023-04-14T17:58:04.469Z,99274.42
2023-04-14T18:00:29.013Z,99272.86
2023-04-14T18:02:53.274Z,99278.33
2023-04-14T18:05:17.049Z,99280.70
2023-04-14T18:07:42.129Z,99278.52
2023-04-14T18:10:07.870Z,99281.38
2023-04-14T18:12:40.036Z,99277.95
2023-04-14T18:15:03.908Z,99278.94
2023-04-14T18:17:28.377Z,99283.91
2023-04-14T18:19:55.404Z,99292.59
2023-04-14T18:22:18.824Z,99296.97
2023-04-14T18:29:36.495Z,99302.67
2023-04-14T18:32:00.075Z,99310.05
2023-04-14T18:34:23.823Z,99306.66
2023-04-14T18:36:51.824Z,99312.44
2023-04-14T18:39:15.753Z,99311.27
2023-04-14T18:41:39.643Z,99315.34
2023-04-14T18:44:03.677Z,99312.20
2023-04-14T18:46:27.143Z,99316.50
2023-04-14T18:48:51.177Z,99321.34
2023-04-14T18:51:15.424Z,99316.12
2023-04-14T18:53:41.658Z,99308.54
2023-04-14T18:56:09.248Z,99309.33
2023-04-14T18:58:32.911Z,99310.48
2023-04-14T19:00:56.758Z,99318.13
2023-04-14T19:03:21.528Z,99317.80
2023-04-14T19:05:46.114Z,99315.15
2023-04-14T19:08:09.613Z,99318.26
2023-04-14T19:10:33.481Z,99322.40
2023-04-14T19:12:56.945Z,99321.30
2023-04-14T19:15:20.712Z,99327.10
2023-04-14T19:17:44.530Z,99322.80
2023-04-14T19:20:09.842Z,99322.21
2023-04-14T19:22:33.436Z,99323.33
2023-04-14T19:24:57.242Z,99326.77
2023-04-14T19:27:20.691Z,99324.77
2023-04-14T19:29:49.241Z,99326.24
2023-04-14T19:32:15.461Z,99322.85
2023-04-14T19:34:38.873Z,99326.29
2023-04-14T19:37:03.269Z,99326.29
2023-04-14T19:39:26.943Z,99325.81
2023-04-14T19:41:50.661Z,99320.96
2023-04-14T19:44:14.501Z,99321.53
2023-04-14T19:46:39.939Z,99314.34
2023-04-14T19:49:03.983Z,99316.36
2023-04-14T19:51:28.271Z,99314.06
2023-04-14T19:53:52.292Z,99312.21
2023-04-14T19:56:15.779Z,99313.29
2023-04-14T19:58:39.739Z,99316.76
2023-04-14T20:01:03.199Z,99317.20
2023-04-14T20:03:27.917Z,99317.26
2023-04-14T20:05:54.093Z,99315.95
2023-04-14T20:08:17.658Z,99312.16
2023-04-14T20:10:41.882Z,99313.75
2023-04-14T20:13:05.348Z,99314.59
2023-04-14T20:15:28.869Z,99312.71
2023-04-14T20:17:52.488Z,99311.27
2023-04-14T20:20:16.544Z,99316.80
2023-04-14T20:22:40.449Z,99316.45
2023-04-14T20:25:05.389Z,99322.42
2023-04-14T20:27:29.319Z,99317.45
2023-04-14T20:29:52.785Z,99318.71
2023-04-14T20:32:16.323Z,99319.44
2023-04-14T20:34:39.995Z,99321.52
2023-04-14T20:37:03.511Z,99317.53
2023-04-14T20:39:27.022Z,99320.14
2023-04-14T20:41:51.057Z,99316.16
2023-04-14T20:44:15.334Z,99312.12
2023-04-14T20:46:41.825Z,99310.36
2023-04-14T20:49:05.525Z,99306.05
2023-04-14T20:51:31.572Z,99306.48
2023-04-14T20:53:55.551Z,99300.66
2023-04-14T20:56:19.062Z,99297.65
2023-04-14T20:58:43.184Z,99304.52
2023-04-14T21:01:06.959Z,99300.83
2023-04-14T21:03:33.786Z,99293.05
2023-04-14T21:05:57.420Z,99303.21
2023-04-14T21:08:30.978Z,99300.99
2023-04-14T21:11:18.506Z,99295.71
2023-04-14T21:15:29.969Z,99294.01
2023-04-14T21:16:44.520Z,99293.55
2023-04-14T21:19:27.797Z,99289.06
2023-04-14T21:21:51.399Z,99288.74
2023-04-14T21:24:24.512Z,99284.19
2023-04-14T21:27:08.433Z,99280.10
2023-04-14T21:29:52.080Z,99277.56
2023-04-14T21:32:18.701Z,99282.11
2023-04-14T21:34:42.368Z,99283.00
2023-04-14T21:37:06.533Z,99289.77
2023-04-14T21:39:32.456Z,99288.78
2023-04-14T21:41:57.134Z,99293.70
2023-04-14T21:44:21.181Z,99294.70
2023-04-14T21:46:44.607Z,99292.41
2023-04-14T21:49:08.153Z,99292.67
2023-04-14T21:51:31.656Z,99285.65
2023-04-14T21:53:55.329Z,99290.43
2023-04-14T21:56:18.715Z,99287.92
2023-04-14T21:58:42.108Z,99290.44
2023-04-14T22:01:06.737Z,99297.73
2023-04-14T22:03:31.801Z,99291.88
2023-04-14T22:05:55.482Z,99294.14
2023-04-14T22:08:19.001Z,99290.72
2023-04-14T22:10:42.629Z,99288.48
2023-04-14T22:13:06.012Z,99286.13
2023-04-14T22:15:30.004Z,99284.90
2023-04-14T22:17:53.603Z,99286.30
2023-04-14T22:20:17.684Z,99285.41
2023-04-14T22:22:41.740Z,99285.88
2023-04-14T22:25:06.993Z,99285.71
2023-04-14T22:27:30.741Z,99291.10
2023-04-14T22:29:54.293Z,99288.98
2023-04-14T22:32:17.725Z,99287.08
2023-04-14T22:34:41.873Z,99290.41
2023-04-14T22:37:06.723Z,99284.34
2023-04-14T22:39:30.377Z,99291.58
2023-04-14T22:41:53.798Z,99292.24
2023-04-14T22:44:18.609Z,99295.04
2023-04-14T22:46:42.109Z,99293.15
2023-04-14T22:49:05.797Z,99289.53
2023-04-14T22:51:29.571Z,99289.25
2023-04-14T22:53:53.187Z,99289.80
2023-04-14T22:56:16.584Z,99290.34
2023-04-14T22:58:40.154Z,99291.45
2023-04-14T23:01:12.073Z,99290.07
2023-04-14T23:03:39.446Z,99294.02
2023-04-14T23:06:03.265Z,99288.86
2023-04-14T23:08:26.735Z,99284.94
2023-04-14T23:10:50.162Z,99287.73
2023-04-14T23:13:13.448Z,99281.70
2023-04-14T23:15:37.004Z,99279.75
2023-04-14T23:18:08.714Z,99282.23
2023-04-14T23:20:32.365Z,99277.77
2023-04-14T23:22:55.879Z,99279.13
2023-04-14T23:25:22.312Z,99279.07
2023-04-14T23:27:48.714Z,99278.52
2023-04-14T23:30:13.530Z,99278.98
2023-04-14T23:32:37.172Z,99281.93
2023-04-14T23:35:01.083Z,99285.15
2023-04-14T23:37:33.758Z,99286.44
2023-04-14T23:39:57.583Z,99289.90
2023-04-14T23:42:25.705Z,99292.19
2023-04-14T23:44:49.298Z,99284.59
2023-04-14T23:47:12.925Z,99287.13
2023-04-14T23:49:36.655Z,99285.05
2023-04-14T23:52:00.430Z,99284.73
2023-04-14T23:54:24.323Z,99284.61
2023-04-14T23:56:48.264Z,99286.02
2023-04-14T23:59:11.908Z,99289.90
